Wink, Texas
Current Conditions -  °F | °C
As of 1:53 AM on Sunday 26 Oct 2014 (Local Time) from KINK Reporting Station
Clear Clear  
Wind Chill: 66°   Ceiling: Unl
Heat Index: 66°   Visibility: 10mi
Dew Point: 53°   Wind: 12mph
Humidity: 63%   Direction: 140°SE
Pressure: 30.05"   Gusts: NA
Location:  31.75°N, 103.16°W
Report Text: KINK 260653Z AUTO 14010KT 10SM CLR 19/12 A3005 RMK AO2 SLP134 T01890117
Loading
Personal Weather Stations






























Interactive Weather Map
Tropical Storm Tracking
New forecast layout! Learn more

10-Day Weather Forecast

Advertisements
Track Severe Weather on mobile